sensor_id;sensor_type;location;lat;lon;timestamp;temperature;humidity
49901;DHT22;35789;48.414;12.768;2023-08-08T00:00:00;11.0;99.9
49901;DHT22;35789;48.414;12.768;2023-08-08T00:05:00;10.9;99.9
49901;DHT22;35789;48.414;12.768;2023-08-08T00:10:00;11.0;99.9
49901;DHT22;35789;48.414;12.768;2023-08-08T00:15:00;10.9;99.9
49901;DHT22;35789;48.414;12.768;2023-08-08T00:20:00;10.9;99.9
49901;DHT22;35789;48.414;12.768;2023-08-08T00:25:00;10.9;99.9
49901;DHT22;35789;48.414;12.768;2023-08-08T00:30:00;10.9;99.9
49901;DHT22;35789;48.414;12.768;2023-08-08T00:35:00;11.0;99.9
49901;DHT22;35789;48.414;12.768;2023-08-08T00:40:00;11.1;99.9
49901;DHT22;35789;48.414;12.768;2023-08-08T00:45:00;11.2;99.9
49901;DHT22;35789;48.414;12.768;2023-08-08T00:50:00;11.2;99.9
49901;DHT22;35789;48.414;12.768;2023-08-08T00:55:00;11.2;99.9
49901;DHT22;35789;48.414;12.768;2023-08-08T01:00:00;11.2;99.9
49901;DHT22;35789;48.414;12.768;2023-08-08T01:05:00;11.2;99.9
49901;DHT22;35789;48.414;12.768;2023-08-08T01:10:01;11.1;99.9
49901;DHT22;35789;48.414;12.768;2023-08-08T01:15:00;11.0;99.9
49901;DHT22;35789;48.414;12.768;2023-08-08T01:20:00;10.9;99.9
49901;DHT22;35789;48.414;12.768;2023-08-08T01:25:00;10.9;99.9
49901;DHT22;35789;48.414;12.768;2023-08-08T01:30:00;10.8;99.9
49901;DHT22;35789;48.414;12.768;2023-08-08T01:35:00;10.7;99.9
49901;DHT22;35789;48.414;12.768;2023-08-08T01:40:00;10.6;99.9
49901;DHT22;35789;48.414;12.768;2023-08-08T01:45:00;10.6;99.9
49901;DHT22;35789;48.414;12.768;2023-08-08T01:50:00;10.5;99.9
49901;DHT22;35789;48.414;12.768;2023-08-08T01:55:00;10.5;99.9
49901;DHT22;35789;48.414;12.768;2023-08-08T02:00:00;10.4;99.9
49901;DHT22;35789;48.414;12.768;2023-08-08T02:05:00;10.4;99.9
49901;DHT22;35789;48.414;12.768;2023-08-08T02:10:00;10.4;99.9
49901;DHT22;35789;48.414;12.768;2023-08-08T02:15:00;10.4;99.9
49901;DHT22;35789;48.414;12.768;2023-08-08T02:20:00;10.4;99.9
49901;DHT22;35789;48.414;12.768;2023-08-08T02:25:00;10.5;99.9
49901;DHT22;35789;48.414;12.768;2023-08-08T02:30:00;10.5;99.9
49901;DHT22;35789;48.414;12.768;2023-08-08T02:35:00;10.6;99.9
49901;DHT22;35789;48.414;12.768;2023-08-08T02:40:00;10.6;99.9
49901;DHT22;35789;48.414;12.768;2023-08-08T02:45:00;10.6;99.9
49901;DHT22;35789;48.414;12.768;2023-08-08T02:50:00;10.6;99.9
49901;DHT22;35789;48.414;12.768;2023-08-08T02:55:00;10.6;99.9
49901;DHT22;35789;48.414;12.768;2023-08-08T03:00:00;10.5;99.9
49901;DHT22;35789;48.414;12.768;2023-08-08T03:05:00;10.6;99.9
49901;DHT22;35789;48.414;12.768;2023-08-08T03:10:00;10.7;99.9
49901;DHT22;35789;48.414;12.768;2023-08-08T03:15:00;10.7;99.9
49901;DHT22;35789;48.414;12.768;2023-08-08T03:20:00;10.8;99.9
49901;DHT22;35789;48.414;12.768;2023-08-08T03:25:00;10.7;99.9
49901;DHT22;35789;48.414;12.768;2023-08-08T03:30:00;10.7;99.9
49901;DHT22;35789;48.414;12.768;2023-08-08T03:35:00;10.6;99.9
49901;DHT22;35789;48.414;12.768;2023-08-08T03:40:00;10.6;99.9
49901;DHT22;35789;48.414;12.768;2023-08-08T03:45:00;10.7;99.9
49901;DHT22;35789;48.414;12.768;2023-08-08T03:50:00;10.6;99.9
49901;DHT22;35789;48.414;12.768;2023-08-08T03:55:00;10.5;99.9
49901;DHT22;35789;48.414;12.768;2023-08-08T04:00:00;10.5;99.9
49901;DHT22;35789;48.414;12.768;2023-08-08T04:05:00;10.5;99.9
49901;DHT22;35789;48.414;12.768;2023-08-08T04:10:00;10.5;99.9
49901;DHT22;35789;48.414;12.768;2023-08-08T04:15:00;10.5;99.9
49901;DHT22;35789;48.414;12.768;2023-08-08T04:20:00;10.5;99.9
49901;DHT22;35789;48.414;12.768;2023-08-08T04:25:00;10.5;99.9
49901;DHT22;35789;48.414;12.768;2023-08-08T04:30:00;10.5;99.9
49901;DHT22;35789;48.414;12.768;2023-08-08T04:35:00;10.6;99.9
49901;DHT22;35789;48.414;12.768;2023-08-08T04:40:00;10.5;99.9
49901;DHT22;35789;48.414;12.768;2023-08-08T04:45:00;10.5;99.9
49901;DHT22;35789;48.414;12.768;2023-08-08T04:50:00;10.6;99.9
49901;DHT22;35789;48.414;12.768;2023-08-08T04:55:00;10.6;99.9
49901;DHT22;35789;48.414;12.768;2023-08-08T05:00:00;10.7;99.9
49901;DHT22;35789;48.414;12.768;2023-08-08T05:05:00;10.7;99.9
49901;DHT22;35789;48.414;12.768;2023-08-08T05:10:00;10.7;99.9
49901;DHT22;35789;48.414;12.768;2023-08-08T05:15:00;10.8;99.9
49901;DHT22;35789;48.414;12.768;2023-08-08T05:20:00;10.9;99.9
49901;DHT22;35789;48.414;12.768;2023-08-08T05:25:00;10.9;99.9
49901;DHT22;35789;48.414;12.768;2023-08-08T05:30:00;11.1;99.9
49901;DHT22;35789;48.414;12.768;2023-08-08T05:35:00;11.1;99.9
49901;DHT22;35789;48.414;12.768;2023-08-08T05:40:00;11.3;99.9
49901;DHT22;35789;48.414;12.768;2023-08-08T05:45:00;11.3;99.9
49901;DHT22;35789;48.414;12.768;2023-08-08T05:50:00;11.4;99.9
49901;DHT22;35789;48.414;12.768;2023-08-08T05:55:00;11.6;99.9
49901;DHT22;35789;48.414;12.768;2023-08-08T06:00:00;11.8;99.9
49901;DHT22;35789;48.414;12.768;2023-08-08T06:05:00;12.1;99.9
49901;DHT22;35789;48.414;12.768;2023-08-08T06:10:00;12.2;99.9
49901;DHT22;35789;48.414;12.768;2023-08-08T06:15:00;12.4;99.9
49901;DHT22;35789;48.414;12.768;2023-08-08T06:20:00;12.5;99.9
49901;DHT22;35789;48.414;12.768;2023-08-08T06:25:00;12.4;99.9
49901;DHT22;35789;48.414;12.768;2023-08-08T06:30:00;12.6;99.9
49901;DHT22;35789;48.414;12.768;2023-08-08T06:35:00;12.9;99.9
49901;DHT22;35789;48.414;12.768;2023-08-08T06:40:00;13.0;99.9
49901;DHT22;35789;48.414;12.768;2023-08-08T06:45:00;13.2;99.9
49901;DHT22;35789;48.414;12.768;2023-08-08T06:50:00;13.3;99.9
49901;DHT22;35789;48.414;12.768;2023-08-08T06:55:00;13.4;99.9
49901;DHT22;35789;48.414;12.768;2023-08-08T07:00:00;13.4;99.9
49901;DHT22;35789;48.414;12.768;2023-08-08T07:05:00;13.4;99.9
49901;DHT22;35789;48.414;12.768;2023-08-08T07:10:00;13.5;99.9
49901;DHT22;35789;48.414;12.768;2023-08-08T07:15:00;13.6;99.9
49901;DHT22;35789;48.414;12.768;2023-08-08T07:20:00;13.7;99.9
49901;DHT22;35789;48.414;12.768;2023-08-08T07:25:00;13.9;99.9
49901;DHT22;35789;48.414;12.768;2023-08-08T07:30:00;14.1;99.9
49901;DHT22;35789;48.414;12.768;2023-08-08T07:35:00;14.3;99.9
49901;DHT22;35789;48.414;12.768;2023-08-08T07:40:00;14.8;99.9
49901;DHT22;35789;48.414;12.768;2023-08-08T07:45:00;15.1;99.9
49901;DHT22;35789;48.414;12.768;2023-08-08T07:50:00;15.0;99.9
49901;DHT22;35789;48.414;12.768;2023-08-08T07:55:00;14.9;99.9
49901;DHT22;35789;48.414;12.768;2023-08-08T08:00:00;14.9;99.9
49901;DHT22;35789;48.414;12.768;2023-08-08T08:05:00;14.8;99.9
49901;DHT22;35789;48.414;12.768;2023-08-08T08:10:00;14.8;99.9
49901;DHT22;35789;48.414;12.768;2023-08-08T08:15:00;15.0;99.9
49901;DHT22;35789;48.414;12.768;2023-08-08T08:20:00;15.2;99.9
49901;DHT22;35789;48.414;12.768;2023-08-08T08:25:00;15.4;99.9
49901;DHT22;35789;48.414;12.768;2023-08-08T08:30:00;15.4;99.9
49901;DHT22;35789;48.414;12.768;2023-08-08T08:35:00;15.5;99.9
49901;DHT22;35789;48.414;12.768;2023-08-08T08:40:00;15.7;99.7
49901;DHT22;35789;48.414;12.768;2023-08-08T08:45:01;15.8;99.6
49901;DHT22;35789;48.414;12.768;2023-08-08T08:50:00;15.8;99.2
49901;DHT22;35789;48.414;12.768;2023-08-08T08:55:00;15.9;98.5
49901;DHT22;35789;48.414;12.768;2023-08-08T09:00:00;16.0;99.7
49901;DHT22;35789;48.414;12.768;2023-08-08T09:05:00;16.0;99.0
49901;DHT22;35789;48.414;12.768;2023-08-08T09:10:00;16.2;98.8
49901;DHT22;35789;48.414;12.768;2023-08-08T09:15:01;16.3;97.5
49901;DHT22;35789;48.414;12.768;2023-08-08T09:20:00;16.4;98.0
49901;DHT22;35789;48.414;12.768;2023-08-08T09:25:01;16.5;97.7
49901;DHT22;35789;48.414;12.768;2023-08-08T09:30:00;16.5;97.5
49901;DHT22;35789;48.414;12.768;2023-08-08T09:35:00;16.6;96.8
49901;DHT22;35789;48.414;12.768;2023-08-08T09:40:02;16.6;96.0
49901;DHT22;35789;48.414;12.768;2023-08-08T09:45:00;16.9;96.0
49901;DHT22;35789;48.414;12.768;2023-08-08T09:50:00;17.5;95.9
49901;DHT22;35789;48.414;12.768;2023-08-08T09:55:00;17.7;94.2
49901;DHT22;35789;48.414;12.768;2023-08-08T10:00:00;17.6;95.6
49901;DHT22;35789;48.414;12.768;2023-08-08T10:05:00;18.0;95.8
49901;DHT22;35789;48.414;12.768;2023-08-08T10:10:00;18.0;94.2
49901;DHT22;35789;48.414;12.768;2023-08-08T10:15:00;18.0;93.7
49901;DHT22;35789;48.414;12.768;2023-08-08T10:20:00;18.0;95.0
49901;DHT22;35789;48.414;12.768;2023-08-08T10:25:03;18.2;94.0
49901;DHT22;35789;48.414;12.768;2023-08-08T10:30:01;18.3;93.4
49901;DHT22;35789;48.414;12.768;2023-08-08T10:35:00;18.3;93.6
49901;DHT22;35789;48.414;12.768;2023-08-08T10:40:01;18.5;92.9
49901;DHT22;35789;48.414;12.768;2023-08-08T10:45:01;18.5;93.5
49901;DHT22;35789;48.414;12.768;2023-08-08T10:50:03;18.5;94.3
49901;DHT22;35789;48.414;12.768;2023-08-08T10:55:00;18.7;92.6
49901;DHT22;35789;48.414;12.768;2023-08-08T11:05:00;19.0;92.9
49901;DHT22;35789;48.414;12.768;2023-08-08T11:10:00;19.1;91.5
49901;DHT22;35789;48.414;12.768;2023-08-08T11:15:00;19.0;92.2
49901;DHT22;35789;48.414;12.768;2023-08-08T11:20:00;18.8;91.6
49901;DHT22;35789;48.414;12.768;2023-08-08T11:25:00;19.1;93.9
49901;DHT22;35789;48.414;12.768;2023-08-08T11:30:00;19.5;91.3
49901;DHT22;35789;48.414;12.768;2023-08-08T11:35:00;19.8;91.6
49901;DHT22;35789;48.414;12.768;2023-08-08T11:40:00;20.1;90.9
49901;DHT22;35789;48.414;12.768;2023-08-08T11:45:00;20.3;90.8
49901;DHT22;35789;48.414;12.768;2023-08-08T11:50:00;20.2;89.1
49901;DHT22;35789;48.414;12.768;2023-08-08T11:55:00;19.7;90.1
49901;DHT22;35789;48.414;12.768;2023-08-08T12:00:00;19.1;91.4
49901;DHT22;35789;48.414;12.768;2023-08-08T12:05:03;19.0;91.1
49901;DHT22;35789;48.414;12.768;2023-08-08T12:10:00;19.3;91.7
49901;DHT22;35789;48.414;12.768;2023-08-08T12:15:02;19.6;90.3
49901;DHT22;35789;48.414;12.768;2023-08-08T12:20:00;19.8;91.3
49901;DHT22;35789;48.414;12.768;2023-08-08T12:25:00;19.5;91.1
49901;DHT22;35789;48.414;12.768;2023-08-08T12:30:00;19.5;90.4
49901;DHT22;35789;48.414;12.768;2023-08-08T12:35:00;19.7;91.3
49901;DHT22;35789;48.414;12.768;2023-08-08T12:40:00;20.0;90.8
49901;DHT22;35789;48.414;12.768;2023-08-08T12:45:00;20.1;92.3
49901;DHT22;35789;48.414;12.768;2023-08-08T12:50:00;20.3;87.6
49901;DHT22;35789;48.414;12.768;2023-08-08T12:55:00;20.2;86.8
49901;DHT22;35789;48.414;12.768;2023-08-08T13:00:00;19.9;89.9
49901;DHT22;35789;48.414;12.768;2023-08-08T13:05:00;19.6;90.8
49901;DHT22;35789;48.414;12.768;2023-08-08T13:10:00;19.6;91.2
49901;DHT22;35789;48.414;12.768;2023-08-08T13:15:00;19.8;89.7
49901;DHT22;35789;48.414;12.768;2023-08-08T13:20:00;19.9;89.2
49901;DHT22;35789;48.414;12.768;2023-08-08T13:25:00;19.9;90.8
49901;DHT22;35789;48.414;12.768;2023-08-08T13:30:00;19.7;88.0
49901;DHT22;35789;48.414;12.768;2023-08-08T13:35:00;19.6;91.3
49901;DHT22;35789;48.414;12.768;2023-08-08T13:40:00;19.6;90.8
49901;DHT22;35789;48.414;12.768;2023-08-08T13:45:00;19.8;89.0
49901;DHT22;35789;48.414;12.768;2023-08-08T13:50:00;19.9;85.4
49901;DHT22;35789;48.414;12.768;2023-08-08T13:55:00;19.9;85.9
49901;DHT22;35789;48.414;12.768;2023-08-08T14:00:00;20.1;86.9
49901;DHT22;35789;48.414;12.768;2023-08-08T14:05:00;20.0;86.8
49901;DHT22;35789;48.414;12.768;2023-08-08T14:10:00;19.9;88.2
49901;DHT22;35789;48.414;12.768;2023-08-08T14:15:00;20.0;84.6
49901;DHT22;35789;48.414;12.768;2023-08-08T14:20:00;20.1;84.7
49901;DHT22;35789;48.414;12.768;2023-08-08T14:25:00;20.0;84.2
49901;DHT22;35789;48.414;12.768;2023-08-08T14:30:01;20.1;84.9
49901;DHT22;35789;48.414;12.768;2023-08-08T14:35:00;20.2;84.0
49901;DHT22;35789;48.414;12.768;2023-08-08T14:40:00;20.2;86.0
49901;DHT22;35789;48.414;12.768;2023-08-08T14:45:00;20.2;86.9
49901;DHT22;35789;48.414;12.768;2023-08-08T14:50:00;20.3;85.0
49901;DHT22;35789;48.414;12.768;2023-08-08T14:55:00;20.4;83.5
49901;DHT22;35789;48.414;12.768;2023-08-08T15:00:00;20.4;85.6
49901;DHT22;35789;48.414;12.768;2023-08-08T15:05:00;20.5;84.6
49901;DHT22;35789;48.414;12.768;2023-08-08T15:10:00;20.5;85.6
49901;DHT22;35789;48.414;12.768;2023-08-08T15:15:00;20.3;84.6
49901;DHT22;35789;48.414;12.768;2023-08-08T15:20:00;20.3;89.1
49901;DHT22;35789;48.414;12.768;2023-08-08T15:25:00;20.3;85.4
49901;DHT22;35789;48.414;12.768;2023-08-08T15:30:00;20.1;86.6
49901;DHT22;35789;48.414;12.768;2023-08-08T15:35:00;20.0;85.7
49901;DHT22;35789;48.414;12.768;2023-08-08T15:40:00;20.0;89.2
49901;DHT22;35789;48.414;12.768;2023-08-08T15:45:00;20.1;87.3
49901;DHT22;35789;48.414;12.768;2023-08-08T15:50:00;20.0;88.3
49901;DHT22;35789;48.414;12.768;2023-08-08T15:55:00;19.9;87.8
49901;DHT22;35789;48.414;12.768;2023-08-08T16:00:00;19.9;90.2
49901;DHT22;35789;48.414;12.768;2023-08-08T16:05:00;19.9;89.7
49901;DHT22;35789;48.414;12.768;2023-08-08T16:10:00;19.7;91.5
49901;DHT22;35789;48.414;12.768;2023-08-08T16:15:00;19.5;88.9
49901;DHT22;35789;48.414;12.768;2023-08-08T16:20:00;19.4;89.3
49901;DHT22;35789;48.414;12.768;2023-08-08T16:25:00;19.4;90.0
49901;DHT22;35789;48.414;12.768;2023-08-08T16:30:00;19.5;90.5
49901;DHT22;35789;48.414;12.768;2023-08-08T16:35:00;19.4;91.1
49901;DHT22;35789;48.414;12.768;2023-08-08T16:40:00;19.4;88.8
49901;DHT22;35789;48.414;12.768;2023-08-08T16:45:00;19.4;90.7
49901;DHT22;35789;48.414;12.768;2023-08-08T16:50:00;19.4;89.4
49901;DHT22;35789;48.414;12.768;2023-08-08T16:55:00;19.4;90.6
49901;DHT22;35789;48.414;12.768;2023-08-08T17:00:00;19.2;91.0
49901;DHT22;35789;48.414;12.768;2023-08-08T17:05:00;19.0;90.3
49901;DHT22;35789;48.414;12.768;2023-08-08T17:10:00;18.9;92.0
49901;DHT22;35789;48.414;12.768;2023-08-08T17:15:00;18.7;90.6
49901;DHT22;35789;48.414;12.768;2023-08-08T17:20:00;18.6;90.9
49901;DHT22;35789;48.414;12.768;2023-08-08T17:25:00;18.4;92.2
49901;DHT22;35789;48.414;12.768;2023-08-08T17:30:00;18.4;92.8
49901;DHT22;35789;48.414;12.768;2023-08-08T17:35:00;18.2;91.7
49901;DHT22;35789;48.414;12.768;2023-08-08T17:40:00;18.1;92.9
49901;DHT22;35789;48.414;12.768;2023-08-08T17:45:00;18.0;93.2
49901;DHT22;35789;48.414;12.768;2023-08-08T17:50:00;17.9;94.0
49901;DHT22;35789;48.414;12.768;2023-08-08T17:55:00;17.8;94.9
49901;DHT22;35789;48.414;12.768;2023-08-08T18:00:00;17.7;94.6
49901;DHT22;35789;48.414;12.768;2023-08-08T18:05:00;17.6;95.3
49901;DHT22;35789;48.414;12.768;2023-08-08T18:10:00;17.5;95.2
49901;DHT22;35789;48.414;12.768;2023-08-08T18:15:00;17.4;94.6
49901;DHT22;35789;48.414;12.768;2023-08-08T18:20:00;17.2;95.6
49901;DHT22;35789;48.414;12.768;2023-08-08T18:25:00;17.1;95.6
49901;DHT22;35789;48.414;12.768;2023-08-08T18:30:00;16.9;95.7
49901;DHT22;35789;48.414;12.768;2023-08-08T18:35:00;16.7;97.0
49901;DHT22;35789;48.414;12.768;2023-08-08T18:40:00;16.5;97.3
49901;DHT22;35789;48.414;12.768;2023-08-08T18:45:00;16.4;97.9
49901;DHT22;35789;48.414;12.768;2023-08-08T18:50:00;16.2;98.1
49901;DHT22;35789;48.414;12.768;2023-08-08T18:55:00;16.0;98.6
49901;DHT22;35789;48.414;12.768;2023-08-08T19:00:00;15.8;98.8
49901;DHT22;35789;48.414;12.768;2023-08-08T19:05:00;15.7;99.6
49901;DHT22;35789;48.414;12.768;2023-08-08T19:10:00;15.6;99.9
49901;DHT22;35789;48.414;12.768;2023-08-08T19:15:00;15.6;99.9
49901;DHT22;35789;48.414;12.768;2023-08-08T19:20:00;15.6;99.9
49901;DHT22;35789;48.414;12.768;2023-08-08T19:25:00;15.6;99.9
49901;DHT22;35789;48.414;12.768;2023-08-08T19:30:00;15.6;99.9
49901;DHT22;35789;48.414;12.768;2023-08-08T19:35:00;15.6;99.9
49901;DHT22;35789;48.414;12.768;2023-08-08T19:40:00;15.5;99.9
49901;DHT22;35789;48.414;12.768;2023-08-08T19:45:00;15.6;99.9
49901;DHT22;35789;48.414;12.768;2023-08-08T19:50:00;15.6;99.9
49901;DHT22;35789;48.414;12.768;2023-08-08T19:55:00;15.5;99.9
49901;DHT22;35789;48.414;12.768;2023-08-08T20:00:00;15.6;99.9
49901;DHT22;35789;48.414;12.768;2023-08-08T20:05:00;15.6;99.9
49901;DHT22;35789;48.414;12.768;2023-08-08T20:10:00;15.6;99.9
49901;DHT22;35789;48.414;12.768;2023-08-08T20:15:00;15.6;99.9
49901;DHT22;35789;48.414;12.768;2023-08-08T20:20:00;15.6;99.9
49901;DHT22;35789;48.414;12.768;2023-08-08T20:25:00;15.6;99.9
49901;DHT22;35789;48.414;12.768;2023-08-08T20:30:00;15.6;99.9
49901;DHT22;35789;48.414;12.768;2023-08-08T20:35:00;15.6;99.9
49901;DHT22;35789;48.414;12.768;2023-08-08T20:40:00;15.6;99.9
49901;DHT22;35789;48.414;12.768;2023-08-08T20:45:00;15.6;99.9
49901;DHT22;35789;48.414;12.768;2023-08-08T20:50:00;15.6;99.9
49901;DHT22;35789;48.414;12.768;2023-08-08T20:55:00;15.6;99.9
49901;DHT22;35789;48.414;12.768;2023-08-08T21:00:00;15.5;99.9
49901;DHT22;35789;48.414;12.768;2023-08-08T21:05:00;15.5;99.9
49901;DHT22;35789;48.414;12.768;2023-08-08T21:10:00;15.5;99.9
49901;DHT22;35789;48.414;12.768;2023-08-08T21:15:00;15.5;99.9
49901;DHT22;35789;48.414;12.768;2023-08-08T21:20:00;15.4;99.9
49901;DHT22;35789;48.414;12.768;2023-08-08T21:25:00;15.4;99.9
49901;DHT22;35789;48.414;12.768;2023-08-08T21:30:00;15.3;99.9
49901;DHT22;35789;48.414;12.768;2023-08-08T21:35:00;15.2;99.9
49901;DHT22;35789;48.414;12.768;2023-08-08T21:40:00;15.1;99.9
49901;DHT22;35789;48.414;12.768;2023-08-08T21:45:00;15.1;99.9
49901;DHT22;35789;48.414;12.768;2023-08-08T21:50:00;15.0;99.9
49901;DHT22;35789;48.414;12.768;2023-08-08T21:55:00;14.9;99.9
49901;DHT22;35789;48.414;12.768;2023-08-08T22:00:00;14.8;99.9
49901;DHT22;35789;48.414;12.768;2023-08-08T22:05:00;14.8;99.9
49901;DHT22;35789;48.414;12.768;2023-08-08T22:10:00;14.8;99.9
49901;DHT22;35789;48.414;12.768;2023-08-08T22:15:00;14.8;99.9
49901;DHT22;35789;48.414;12.768;2023-08-08T22:20:00;14.8;99.9
49901;DHT22;35789;48.414;12.768;2023-08-08T22:25:00;14.6;99.9
49901;DHT22;35789;48.414;12.768;2023-08-08T22:30:00;14.5;99.9
49901;DHT22;35789;48.414;12.768;2023-08-08T22:35:00;14.4;99.9
49901;DHT22;35789;48.414;12.768;2023-08-08T22:40:00;14.4;99.9
49901;DHT22;35789;48.414;12.768;2023-08-08T22:45:00;14.4;99.9
49901;DHT22;35789;48.414;12.768;2023-08-08T22:50:00;14.5;99.9
49901;DHT22;35789;48.414;12.768;2023-08-08T22:55:00;14.6;99.9
49901;DHT22;35789;48.414;12.768;2023-08-08T23:00:00;14.6;99.9
49901;DHT22;35789;48.414;12.768;2023-08-08T23:05:00;14.6;99.9
49901;DHT22;35789;48.414;12.768;2023-08-08T23:10:00;14.6;99.9
49901;DHT22;35789;48.414;12.768;2023-08-08T23:15:00;14.6;99.9
49901;DHT22;35789;48.414;12.768;2023-08-08T23:20:00;14.6;99.9
49901;DHT22;35789;48.414;12.768;2023-08-08T23:25:00;14.6;99.9
49901;DHT22;35789;48.414;12.768;2023-08-08T23:30:00;14.6;99.9
49901;DHT22;35789;48.414;12.768;2023-08-08T23:35:00;14.6;99.9
49901;DHT22;35789;48.414;12.768;2023-08-08T23:40:00;14.6;99.9
49901;DHT22;35789;48.414;12.768;2023-08-08T23:45:00;14.6;99.9
49901;DHT22;35789;48.414;12.768;2023-08-08T23:50:00;14.6;99.9
49901;DHT22;35789;48.414;12.768;2023-08-08T23:55:00;14.5;99.9
